createdAt,value
2022-11-28T00:01:16.522Z,98525.94
2022-11-28T00:04:05.327Z,98529.22
2022-11-28T00:06:54.428Z,98515.25
2022-11-28T00:09:42.694Z,98501.91
2022-11-28T00:12:30.660Z,98517.25
2022-11-28T00:15:20.146Z,98512.81
2022-11-28T00:18:08.026Z,98500.03
2022-11-28T00:21:01.118Z,98505.38
2022-11-28T00:23:49.952Z,98501.06
2022-11-28T00:26:40.381Z,98497.19
2022-11-28T00:29:28.240Z,98490.16
2022-11-28T00:32:17.650Z,98484.16
2022-11-28T00:35:06.146Z,98480.81
2022-11-28T00:37:53.808Z,98469.25
2022-11-28T00:40:41.746Z,98450.28
2022-11-28T00:43:30.759Z,98445.75
2022-11-28T00:46:21.269Z,98447.66
2022-11-28T00:49:10.502Z,98441.53
2022-11-28T00:51:58.542Z,98441.44
2022-11-28T00:54:46.766Z,98442.81
2022-11-28T00:57:38.049Z,98449.19
2022-11-28T01:00:26.340Z,98456.97
2022-11-28T01:03:14.132Z,98454.63
2022-11-28T01:06:03.476Z,98444.03
2022-11-28T01:08:54.738Z,98436.28
2022-11-28T01:11:43.201Z,98434.41
2022-11-28T01:14:31.289Z,98424.22
2022-11-28T01:17:19.380Z,98424.84
2022-11-28T01:20:09.795Z,98414.34
2022-11-28T01:23:02.752Z,98409.09
2022-11-28T01:25:50.483Z,98394.19
2022-11-28T01:28:38.419Z,98396.91
2022-11-28T01:31:28.694Z,98403.97
2022-11-28T01:34:16.712Z,98399.53
2022-11-28T01:37:04.715Z,98390.94
2022-11-28T01:39:53.949Z,98384.75
2022-11-28T01:42:41.807Z,98373.28
2022-11-28T01:45:32.452Z,98374.16
2022-11-28T01:48:26.740Z,98368.91
2022-11-28T01:51:15.041Z,98362.81
2022-11-28T01:54:03.803Z,98340.03
2022-11-28T01:56:58.021Z,98330.19
2022-11-28T01:59:52.474Z,98321.34
2022-11-28T02:02:46.253Z,98335.53
2022-11-28T02:05:34.912Z,98337.19
2022-11-28T02:08:22.885Z,98338.97
2022-11-28T02:11:41.891Z,98346.63
2022-11-28T02:14:54.847Z,98344.75
2022-11-28T02:17:54.619Z,98337.00
2022-11-28T02:21:08.998Z,98339.50
2022-11-28T02:24:38.420Z,98332.38
2022-11-28T02:28:18.589Z,98308.44
2022-11-28T02:31:33.543Z,98275.03
2022-11-28T02:34:29.788Z,98280.28
2022-11-28T02:37:28.227Z,98289.72
2022-11-28T02:40:23.382Z,98288.78
2022-11-28T02:43:23.491Z,98291.41
2022-11-28T02:46:17.921Z,98287.81
2022-11-28T02:49:08.484Z,98287.81
2022-11-28T02:52:01.956Z,98296.44
2022-11-28T02:54:52.170Z,98296.44
2022-11-28T02:57:42.616Z,98294.63
2022-11-28T03:00:32.687Z,98295.47
2022-11-28T03:03:49.581Z,98288.25
2022-11-28T03:06:47.431Z,98275.94
2022-11-28T03:10:04.948Z,98300.41
2022-11-28T03:13:07.713Z,98288.84
2022-11-28T03:16:07.171Z,98255.69
2022-11-28T03:19:10.889Z,98245.91
2022-11-28T03:22:06.422Z,98245.06
2022-11-28T03:25:01.632Z,98258.19
2022-11-28T03:27:54.995Z,98248.53
2022-11-28T03:30:49.287Z,98252.94
2022-11-28T03:33:39.641Z,98246.63
2022-11-28T03:36:30.395Z,98234.34
2022-11-28T03:39:21.453Z,98222.88
2022-11-28T03:42:14.888Z,98223.63
2022-11-28T03:45:08.868Z,98223.63
2022-11-28T03:48:01.599Z,98225.41
2022-11-28T03:50:54.471Z,98238.41
2022-11-28T03:53:50.125Z,98246.19
2022-11-28T03:56:45.025Z,98253.22
2022-11-28T03:59:38.510Z,98266.22
2022-11-28T04:02:32.042Z,98257.53
2022-11-28T04:05:30.959Z,98251.44
2022-11-28T04:08:24.604Z,98243.44
2022-11-28T04:11:17.083Z,98233.78
2022-11-28T04:14:13.660Z,98228.53
2022-11-28T04:17:12.099Z,98232.19
2022-11-28T04:20:06.842Z,98235.69
2022-11-28T04:22:58.985Z,98217.53
2022-11-28T04:25:53.636Z,98219.50
2022-11-28T04:28:42.764Z,98214.16
2022-11-28T04:31:58.561Z,98210.72
2022-11-28T04:34:52.057Z,98218.47
2022-11-28T04:37:43.278Z,98222.03
2022-11-28T04:40:35.423Z,98243.88
2022-11-28T04:43:28.226Z,98240.19
2022-11-28T04:46:43.651Z,98257.75
2022-11-28T04:49:32.513Z,98257.63
2022-11-28T04:52:28.217Z,98253.22
2022-11-28T04:55:29.117Z,98253.31
2022-11-28T04:58:22.039Z,98248.06
2022-11-28T05:01:15.370Z,98239.25
2022-11-28T05:04:03.621Z,98228.75
2022-11-28T05:06:52.153Z,98231.50
2022-11-28T05:09:41.296Z,98222.78
2022-11-28T05:12:29.094Z,98195.78
2022-11-28T05:15:19.024Z,98162.59
2022-11-28T05:18:07.284Z,98125.16
2022-11-28T05:20:55.240Z,98118.19
2022-11-28T05:23:45.396Z,98119.91
2022-11-28T05:26:35.410Z,98121.56
2022-11-28T05:29:24.828Z,98152.84
2022-11-28T05:32:12.678Z,98165.00
2022-11-28T05:35:00.782Z,98171.00
2022-11-28T05:37:48.551Z,98160.50
2022-11-28T05:40:40.030Z,98156.91
2022-11-28T05:43:29.649Z,98135.91
2022-11-28T05:46:18.101Z,98135.91
2022-11-28T05:49:05.983Z,98128.88
2022-11-28T05:51:53.865Z,98149.88
2022-11-28T05:54:42.015Z,98145.34
2022-11-28T05:57:32.075Z,98118.25
2022-11-28T06:00:22.576Z,98149.53
2022-11-28T06:03:10.567Z,98179.13
2022-11-28T06:05:59.190Z,98169.25
2022-11-28T06:08:48.425Z,98227.03
2022-11-28T06:11:36.812Z,98183.09
2022-11-28T06:14:26.907Z,98179.31
2022-11-28T06:17:15.962Z,98157.66
2022-11-28T06:20:04.969Z,98169.84
2022-11-28T06:22:52.956Z,98155.91
2022-11-28T06:25:40.963Z,98181.31
2022-11-28T06:28:28.941Z,98166.50
2022-11-28T06:31:20.243Z,98177.84
2022-11-28T06:34:11.556Z,98168.28
2022-11-28T06:40:12.093Z,98166.63
2022-11-28T06:43:00.146Z,98156.22
2022-11-28T06:45:48.235Z,98177.25
2022-11-28T06:48:36.461Z,98174.50
2022-11-28T06:51:25.800Z,98178.91
2022-11-28T06:54:13.815Z,98163.16
2022-11-28T06:57:01.873Z,98158.13
2022-11-28T06:59:50.510Z,98156.47
2022-11-28T07:02:38.617Z,98157.31
2022-11-28T07:05:27.740Z,98179.97
2022-11-28T07:08:17.249Z,98152.88
2022-11-28T07:11:13.859Z,98143.22
2022-11-28T07:14:04.162Z,98134.38
2022-11-28T07:16:52.141Z,98142.13
2022-11-28T07:19:42.185Z,98135.94
2022-11-28T07:22:30.344Z,98150.75
2022-11-28T07:25:29.233Z,98160.28
2022-11-28T07:28:20.676Z,98175.94
2022-11-28T07:31:12.460Z,98171.31
2022-11-28T07:34:03.381Z,98182.53
2022-11-28T07:36:51.047Z,98184.91
2022-11-28T07:39:39.240Z,98187.53
2022-11-28T07:42:29.333Z,98194.38
2022-11-28T07:45:17.210Z,98199.53
2022-11-28T07:48:04.968Z,98184.69
2022-11-28T07:50:53.117Z,98180.88
2022-11-28T07:53:42.115Z,98180.75
2022-11-28T07:56:57.274Z,98181.63
2022-11-28T07:59:41.128Z,98172.44
2022-11-28T08:02:32.380Z,98172.19
2022-11-28T08:05:20.473Z,98167.56
2022-11-28T08:08:08.506Z,98180.25
2022-11-28T08:10:59.848Z,98191.56
2022-11-28T08:13:48.397Z,98198.41
2022-11-28T08:16:45.068Z,98187.66
2022-11-28T08:19:35.359Z,98185.75
2022-11-28T08:22:23.248Z,98186.34
2022-11-28T08:25:12.341Z,98182.53
2022-11-28T08:28:00.206Z,98168.19
2022-11-28T08:30:48.159Z,98167.16
2022-11-28T08:33:37.497Z,98168.56
2022-11-28T08:36:28.352Z,98162.34
2022-11-28T08:39:23.818Z,98166.56
2022-11-28T08:42:16.861Z,98161.19
2022-11-28T08:45:08.178Z,98163.09
2022-11-28T08:47:56.256Z,98160.91
2022-11-28T08:50:49.364Z,98176.47
2022-11-28T08:53:37.303Z,98170.38
2022-11-28T08:56:24.872Z,98170.16
2022-11-28T08:59:12.857Z,98170.72
2022-11-28T09:02:00.797Z,98169.56
2022-11-28T09:04:48.799Z,98176.00
2022-11-28T09:07:38.335Z,98174.19
2022-11-28T09:10:27.019Z,98172.78
2022-11-28T09:13:16.149Z,98171.59
2022-11-28T09:16:04.515Z,98168.97
2022-11-28T09:18:52.389Z,98165.47
2022-11-28T09:21:41.529Z,98165.00
2022-11-28T09:24:30.789Z,98163.91
2022-11-28T09:27:18.351Z,98164.53
2022-11-28T09:30:07.669Z,98158.78
2022-11-28T09:32:55.515Z,98157.22
2022-11-28T09:35:43.725Z,98155.06
2022-11-28T09:38:31.496Z,98154.44
2022-11-28T09:41:58.832Z,98140.81
2022-11-28T09:44:49.543Z,98140.69
2022-11-28T09:47:40.877Z,98142.94
2022-11-28T09:50:33.623Z,98144.63
2022-11-28T09:53:27.760Z,98142.47
2022-11-28T09:56:18.024Z,98150.47
2022-11-28T09:59:15.589Z,98148.06
2022-11-28T10:02:19.479Z,98153.66
2022-11-28T10:05:16.627Z,98145.28
2022-11-28T10:08:17.075Z,98137.75
2022-11-28T10:11:11.493Z,98149.94
2022-11-28T10:14:08.818Z,98158.44
2022-11-28T10:17:05.431Z,98155.09
2022-11-28T10:19:57.931Z,98149.56
2022-11-28T10:22:51.251Z,98151.72
2022-11-28T10:25:43.526Z,98153.88
2022-11-28T10:28:35.593Z,98145.47
2022-11-28T10:31:31.879Z,98146.41
2022-11-28T10:34:28.964Z,98128.44
2022-11-28T10:37:21.649Z,98134.59
2022-11-28T10:40:22.197Z,98136.84
2022-11-28T10:43:21.261Z,98136.72
2022-11-28T10:46:36.844Z,98137.44
2022-11-28T10:49:41.331Z,98124.47
2022-11-28T10:52:37.161Z,98132.50
2022-11-28T10:55:35.818Z,98141.25
2022-11-28T10:58:28.376Z,98145.03
2022-11-28T11:01:16.830Z,98139.88
2022-11-28T11:04:05.086Z,98140.75
2022-11-28T11:07:11.205Z,98136.91
2022-11-28T11:10:14.387Z,98134.16
2022-11-28T11:13:10.432Z,98131.25
2022-11-28T11:16:01.991Z,98137.13
2022-11-28T11:18:55.902Z,98141.28
2022-11-28T11:21:52.072Z,98124.22
2022-11-28T11:24:41.482Z,98122.13
2022-11-28T11:27:29.262Z,98116.19
2022-11-28T11:30:28.669Z,98117.03
2022-11-28T11:33:18.563Z,98102.59
2022-11-28T11:36:21.245Z,98098.44
2022-11-28T11:39:23.000Z,98094.03
2022-11-28T11:42:19.828Z,98095.44
2022-11-28T11:45:27.232Z,98100.81
2022-11-28T11:48:15.259Z,98111.00
2022-11-28T11:51:03.197Z,98097.13
2022-11-28T11:54:00.982Z,98100.19
2022-11-28T11:57:00.898Z,98103.72
2022-11-28T12:00:05.401Z,98100.97
2022-11-28T12:02:56.415Z,98114.19
2022-11-28T12:06:13.126Z,98107.09
2022-11-28T12:09:09.268Z,98109.94
2022-11-28T12:12:01.552Z,98120.50
2022-11-28T12:14:50.469Z,98106.13
2022-11-28T12:17:57.177Z,98097.13
2022-11-28T12:20:59.616Z,98090.81
2022-11-28T12:24:00.745Z,98078.63
2022-11-28T12:26:52.003Z,98092.56
2022-11-28T12:29:49.935Z,98080.19
2022-11-28T12:32:51.548Z,98077.66
2022-11-28T12:35:42.747Z,98067.25
2022-11-28T12:38:44.928Z,98081.59
2022-11-28T12:42:05.827Z,98072.69
2022-11-28T12:45:19.183Z,98067.00
2022-11-28T12:48:13.731Z,98061.56
2022-11-28T12:51:11.669Z,98066.97
2022-11-28T12:54:13.265Z,98060.59
2022-11-28T12:57:09.733Z,98064.19
2022-11-28T13:00:09.006Z,98061.38
2022-11-28T13:03:14.618Z,98056.97
2022-11-28T13:06:16.016Z,98058.94
2022-11-28T13:09:22.235Z,98053.63
2022-11-28T13:12:24.008Z,98062.97
2022-11-28T13:15:17.876Z,98061.69
2022-11-28T13:18:16.548Z,98061.97
2022-11-28T13:21:15.139Z,98059.19
2022-11-28T13:24:07.548Z,98048.19
2022-11-28T13:27:04.082Z,98065.19
2022-11-28T13:30:01.031Z,98061.91
2022-11-28T13:32:54.893Z,98064.31
2022-11-28T13:35:46.515Z,98085.97
2022-11-28T13:39:09.566Z,98083.34
2022-11-28T13:42:28.309Z,98085.84
2022-11-28T13:45:28.396Z,98084.91
2022-11-28T13:49:19.941Z,98075.88
2022-11-28T13:52:34.119Z,98077.25
2022-11-28T13:55:44.791Z,98077.53
2022-11-28T13:58:36.088Z,98073.66
2022-11-28T14:01:26.385Z,98076.69
2022-11-28T14:04:17.228Z,98070.88
2022-11-28T14:07:09.290Z,98067.81
2022-11-28T14:10:15.635Z,98067.91
2022-11-28T14:13:40.293Z,98072.38
2022-11-28T14:16:42.364Z,98074.03
2022-11-28T14:19:56.199Z,98073.50
2022-11-28T14:23:01.885Z,98078.50
2022-11-28T14:25:53.609Z,98080.03
2022-11-28T14:28:45.850Z,98089.69
2022-11-28T14:31:36.697Z,98086.66
2022-11-28T14:34:43.885Z,98088.41
2022-11-28T14:37:57.571Z,98089.56
2022-11-28T14:41:03.189Z,98098.22
2022-11-28T14:43:52.869Z,98100.97
2022-11-28T14:47:14.723Z,98108.75
2022-11-28T14:50:46.864Z,98106.09
2022-11-28T14:53:48.696Z,98110.13
2022-11-28T14:56:37.973Z,98109.88
2022-11-28T14:59:31.964Z,98105.25
2022-11-28T15:02:56.323Z,98104.34
2022-11-28T15:05:50.363Z,98109.88
2022-11-28T15:09:02.158Z,98110.72
2022-11-28T15:12:11.391Z,98109.59
2022-11-28T15:15:00.128Z,98111.25
2022-11-28T15:17:51.302Z,98109.00
2022-11-28T15:20:48.022Z,98112.66
2022-11-28T15:23:38.349Z,98108.22
2022-11-28T15:26:30.652Z,98110.72
2022-11-28T15:29:24.092Z,98111.25
2022-11-28T15:32:16.461Z,98112.50
2022-11-28T15:35:12.258Z,98101.41
2022-11-28T15:38:00.997Z,98103.41
2022-11-28T15:40:53.790Z,98105.78
2022-11-28T15:43:45.934Z,98100.25
2022-11-28T15:46:36.117Z,98088.81
2022-11-28T15:49:26.313Z,98095.66
2022-11-28T15:52:19.633Z,98085.41
2022-11-28T15:55:16.828Z,98097.31
2022-11-28T15:58:20.093Z,98097.97
2022-11-28T16:01:14.518Z,98108.84
2022-11-28T16:04:07.500Z,98104.34
2022-11-28T16:07:01.245Z,98107.25
2022-11-28T16:09:59.607Z,98110.19
2022-11-28T16:12:47.823Z,98105.03
2022-11-28T16:15:35.931Z,98107.25
2022-11-28T16:18:24.547Z,98105.69
2022-11-28T16:21:15.455Z,98106.78
2022-11-28T16:24:04.201Z,98106.59
2022-11-28T16:26:56.697Z,98119.38
2022-11-28T16:29:47.939Z,98114.38
2022-11-28T16:32:39.672Z,98109.09
2022-11-28T16:35:29.778Z,98115.44
2022-11-28T16:38:23.615Z,98117.56
2022-11-28T16:41:32.539Z,98116.63
2022-11-28T16:44:35.969Z,98106.22
2022-11-28T16:47:26.040Z,98109.66
2022-11-28T16:50:20.768Z,98109.66
2022-11-28T16:53:29.362Z,98112.69
2022-11-28T16:56:27.835Z,98121.88
2022-11-28T16:59:17.920Z,98116.72
2022-11-28T17:02:13.326Z,98118.50
2022-11-28T17:05:01.957Z,98121.09
2022-11-28T17:07:49.701Z,98123.31
2022-11-28T17:10:37.742Z,98130.66
2022-11-28T17:13:30.414Z,98124.16
2022-11-28T17:16:20.586Z,98122.16
2022-11-28T17:19:08.236Z,98127.53
2022-11-28T17:22:00.201Z,98126.59
2022-11-28T17:24:49.694Z,98129.34
2022-11-28T17:27:39.768Z,98120.13
2022-11-28T17:30:28.844Z,98123.50
2022-11-28T17:33:17.631Z,98124.91
2022-11-28T17:36:06.060Z,98125.28
2022-11-28T17:38:53.929Z,98129.72
2022-11-28T17:41:42.768Z,98129.25
2022-11-28T17:44:32.296Z,98130.09
2022-11-28T17:47:21.703Z,98132.00
2022-11-28T17:50:11.255Z,98130.72
2022-11-28T17:52:59.164Z,98123.41
2022-11-28T17:55:51.454Z,98131.44
2022-11-28T17:58:57.022Z,98133.09
2022-11-28T18:01:45.720Z,98124.47
2022-11-28T18:04:37.425Z,98131.81
2022-11-28T18:07:25.670Z,98129.06
2022-11-28T18:10:13.758Z,98126.19
2022-11-28T18:13:01.824Z,98125.09
2022-11-28T18:15:54.243Z,98132.72
2022-11-28T18:18:42.147Z,98127.34
2022-11-28T18:21:31.266Z,98133.09
2022-11-28T18:24:19.109Z,98131.44
2022-11-28T18:27:07.041Z,98120.63
2022-11-28T18:29:55.014Z,98123.97
2022-11-28T18:32:43.435Z,98109.84
2022-11-28T18:35:31.078Z,98109.16
2022-11-28T18:38:20.265Z,98112.03
2022-11-28T18:41:10.067Z,98120.19
2022-11-28T18:43:58.675Z,98121.84
2022-11-28T18:46:46.649Z,98124.22
2022-11-28T18:49:34.626Z,98133.09
2022-11-28T18:52:22.646Z,98128.81
2022-11-28T18:55:12.228Z,98135.38
2022-11-28T18:58:00.290Z,98129.44
2022-11-28T19:00:48.643Z,98131.94
2022-11-28T19:03:36.779Z,98138.13
2022-11-28T19:06:25.597Z,98137.31
2022-11-28T19:09:15.688Z,98131.44
2022-11-28T19:12:05.031Z,98142.09
2022-11-28T19:14:57.325Z,98136.00
2022-11-28T19:17:48.448Z,98137.69
2022-11-28T19:20:36.642Z,98142.34
2022-11-28T19:23:24.387Z,98139.84
2022-11-28T19:26:14.334Z,98146.19
2022-11-28T19:29:04.262Z,98136.63
2022-11-28T19:31:52.529Z,98142.03
2022-11-28T19:34:40.696Z,98140.09
2022-11-28T19:37:53.688Z,98145.22
2022-11-28T19:40:47.604Z,98147.28
2022-11-28T19:43:36.531Z,98152.31
2022-11-28T19:46:29.202Z,98146.06
2022-11-28T19:49:22.086Z,98145.94
2022-11-28T19:52:09.874Z,98152.06
2022-11-28T19:54:57.933Z,98160.66
2022-11-28T19:57:45.821Z,98150.13
2022-11-28T20:00:33.783Z,98154.53
2022-11-28T20:03:22.894Z,98160.66
2022-11-28T20:06:36.179Z,98160.53
2022-11-28T20:09:24.022Z,98155.16
2022-11-28T20:12:12.089Z,98148.22
2022-11-28T20:15:01.799Z,98158.75
2022-11-28T20:17:49.724Z,98153.47
2022-11-28T20:20:39.052Z,98155.16
2022-11-28T20:23:27.220Z,98160.41
2022-11-28T20:26:17.623Z,98161.38
2022-11-28T20:29:05.940Z,98165.91
2022-11-28T20:31:54.615Z,98164.25
2022-11-28T20:34:42.235Z,98163.66
2022-11-28T20:37:31.797Z,98166.66
2022-11-28T20:40:19.713Z,98178.88
2022-11-28T20:43:07.835Z,98179.69
2022-11-28T20:45:56.368Z,98182.19
2022-11-28T20:48:44.434Z,98186.53
2022-11-28T20:51:34.372Z,98181.25
2022-11-28T20:54:25.926Z,98183.03
2022-11-28T20:57:21.427Z,98177.16
2022-11-28T21:00:11.266Z,98177.28
2022-11-28T21:02:59.048Z,98174.66
2022-11-28T21:05:47.012Z,98175.50
2022-11-28T21:08:34.938Z,98177.28
2022-11-28T21:11:55.221Z,98183.41
2022-11-28T21:14:33.859Z,98177.16
2022-11-28T21:17:22.097Z,98178.03
2022-11-28T21:20:11.269Z,98179.00
2022-11-28T21:22:59.156Z,98184.13
2022-11-28T21:26:14.141Z,98181.63
2022-11-28T21:29:06.785Z,98184.38
2022-11-28T21:31:55.035Z,98189.63
2022-11-28T21:34:43.072Z,98179.09
2022-11-28T21:37:31.077Z,98178.38
2022-11-28T21:40:19.131Z,98186.28
2022-11-28T21:43:07.101Z,98178.75
2022-11-28T21:45:56.618Z,98185.22
2022-11-28T21:48:44.384Z,98180.44
2022-11-28T21:51:50.456Z,98171.69
2022-11-28T21:54:38.107Z,98179.56
2022-11-28T21:57:26.159Z,98178.88
2022-11-28T22:00:38.302Z,98168.34
2022-11-28T22:03:24.380Z,98168.59
2022-11-28T22:06:16.878Z,98170.88
2022-11-28T22:09:13.835Z,98174.44
2022-11-28T22:12:01.715Z,98165.00
2022-11-28T22:14:50.059Z,98175.41
2022-11-28T22:17:38.494Z,98178.03
2022-11-28T22:20:27.927Z,98181.03
2022-11-28T22:23:18.750Z,98185.44
2022-11-28T22:26:08.333Z,98181.03
2022-11-28T22:28:56.204Z,98184.38
2022-11-28T22:31:56.168Z,98184.38
2022-11-28T22:34:44.704Z,98183.41
2022-11-28T22:37:34.497Z,98182.44
2022-11-28T22:40:22.566Z,98184.97
2022-11-28T22:43:10.531Z,98185.81
2022-11-28T22:45:59.272Z,98184.16
2022-11-28T22:48:47.783Z,98184.16
2022-11-28T22:52:00.998Z,98189.66
2022-11-28T22:54:51.340Z,98185.19
2022-11-28T22:57:39.025Z,98187.00
2022-11-28T23:00:27.066Z,98191.53
2022-11-28T23:03:15.533Z,98190.13
2022-11-28T23:06:06.553Z,98195.38
2022-11-28T23:08:55.576Z,98179.47
2022-11-28T23:11:44.666Z,98171.72
2022-11-28T23:14:33.012Z,98181.25
2022-11-28T23:17:20.989Z,98172.78
2022-11-28T23:20:10.221Z,98170.41
2022-11-28T23:22:57.896Z,98176.47
2022-11-28T23:25:45.936Z,98166.91
2022-11-28T23:28:35.726Z,98164.28
2022-11-28T23:31:25.291Z,98160.94
2022-11-28T23:34:13.471Z,98165.25
2022-11-28T23:37:01.250Z,98165.38
2022-11-28T23:39:49.244Z,98163.56
2022-11-28T23:42:37.249Z,98160.94
2022-11-28T23:45:27.038Z,98153.88
2022-11-28T23:48:16.320Z,98160.81
2022-11-28T23:51:04.799Z,98159.88
2022-11-28T23:53:53.514Z,98159.03
2022-11-28T23:56:44.190Z,98155.56
2022-11-28T23:59:32.005Z,98150.41
